createdAt,value
2018-05-06T00:02:57.583Z,14.40
2018-05-06T00:05:58.867Z,14.30
2018-05-06T00:09:00.451Z,14.40
2018-05-06T00:12:01.702Z,14.60
2018-05-06T00:15:02.966Z,14.50
2018-05-06T00:18:04.252Z,14.50
2018-05-06T00:21:05.513Z,14.60
2018-05-06T00:24:07.488Z,14.20
2018-05-06T00:27:08.715Z,14.20
2018-05-06T00:30:09.951Z,14.30
2018-05-06T00:33:11.941Z,14.30
2018-05-06T00:36:13.964Z,14.20
2018-05-06T00:39:15.211Z,14.20
2018-05-06T00:42:16.464Z,14.40
2018-05-06T00:45:17.707Z,14.50
2018-05-06T00:48:19.963Z,14.70
2018-05-06T00:51:21.226Z,14.70
2018-05-06T00:54:41.072Z,14.70
2018-05-06T00:57:42.321Z,14.70
2018-05-06T01:00:44.286Z,14.50
2018-05-06T01:03:45.527Z,14.50
2018-05-06T01:06:46.781Z,14.50
2018-05-06T01:09:48.059Z,14.50
2018-05-06T01:12:49.341Z,14.50
2018-05-06T01:15:55.772Z,14.40
2018-05-06T01:18:57.078Z,14.30
2018-05-06T01:21:58.356Z,14.40
2018-05-06T01:24:59.705Z,14.20
2018-05-06T01:28:01.008Z,14.20
2018-05-06T01:31:02.234Z,14.20
2018-05-06T01:34:03.515Z,14.20
2018-05-06T01:37:04.762Z,14.00
2018-05-06T01:40:06.034Z,13.90
2018-05-06T01:43:07.274Z,13.90
2018-05-06T01:46:08.560Z,14.00
2018-05-06T01:49:09.795Z,14.10
2018-05-06T01:52:11.040Z,14.10
2018-05-06T01:55:12.313Z,14.00
2018-05-06T01:58:13.570Z,13.80
2018-05-06T02:01:14.845Z,13.80
2018-05-06T02:04:16.089Z,13.90
2018-05-06T02:07:17.369Z,13.90
2018-05-06T02:10:18.667Z,13.90
2018-05-06T02:13:19.904Z,13.80
2018-05-06T02:16:21.219Z,13.70
2018-05-06T02:19:23.234Z,13.70
2018-05-06T02:22:24.510Z,13.70
2018-05-06T02:25:25.782Z,13.90
2018-05-06T02:28:27.783Z,13.70
2018-05-06T02:31:29.110Z,13.60
2018-05-06T02:34:30.385Z,13.20
2018-05-06T02:37:31.649Z,13.20
2018-05-06T02:40:32.926Z,13.10
2018-05-06T02:43:34.186Z,12.90
2018-05-06T02:46:35.447Z,12.90
2018-05-06T02:49:36.686Z,13.10
2018-05-06T02:52:37.932Z,13.40
2018-05-06T02:55:39.188Z,12.90
2018-05-06T02:58:40.496Z,13.00
2018-05-06T03:01:41.781Z,13.10
2018-05-06T03:04:43.053Z,13.20
2018-05-06T03:07:45.049Z,13.30
2018-05-06T03:10:47.043Z,13.20
2018-05-06T03:13:48.350Z,13.10
2018-05-06T03:16:50.366Z,13.10
2018-05-06T03:19:52.318Z,13.00
2018-05-06T03:22:53.583Z,13.00
2018-05-06T03:25:54.839Z,13.10
2018-05-06T03:28:56.117Z,13.00
2018-05-06T03:31:57.350Z,13.00
2018-05-06T03:34:58.618Z,13.00
2018-05-06T03:37:59.851Z,12.90
2018-05-06T03:41:01.103Z,13.20
2018-05-06T03:44:02.445Z,13.10
2018-05-06T03:47:04.458Z,13.00
2018-05-06T03:50:05.703Z,13.00
2018-05-06T03:53:07.722Z,13.00
2018-05-06T04:00:29.742Z,13.00
2018-05-06T04:03:30.915Z,13.00
2018-05-06T04:06:32.298Z,12.90
2018-05-06T04:09:34.267Z,12.80
2018-05-06T04:12:35.503Z,12.80
2018-05-06T04:15:37.485Z,12.70
2018-05-06T04:18:38.726Z,12.70
2018-05-06T04:21:39.951Z,12.80
2018-05-06T04:24:41.955Z,12.70
2018-05-06T04:27:43.162Z,12.70
2018-05-06T04:30:44.420Z,12.60
2018-05-06T04:33:46.413Z,12.70
2018-05-06T04:36:47.716Z,12.70
2018-05-06T04:39:48.959Z,12.70
2018-05-06T04:42:51.080Z,12.60
2018-05-06T04:45:52.405Z,12.60
2018-05-06T04:48:54.388Z,12.50
2018-05-06T04:51:56.440Z,12.60
2018-05-06T04:54:57.678Z,12.60
2018-05-06T04:57:58.944Z,12.70
2018-05-06T05:01:00.194Z,12.70
2018-05-06T05:04:01.472Z,12.70
2018-05-06T05:07:02.731Z,12.60
2018-05-06T05:10:04.031Z,12.70
2018-05-06T05:13:05.318Z,12.70
2018-05-06T05:16:07.313Z,12.80
2018-05-06T05:19:08.700Z,12.80
2018-05-06T05:22:09.948Z,12.80
2018-05-06T05:25:11.198Z,12.80
2018-05-06T05:28:13.196Z,12.90
2018-05-06T05:31:14.450Z,12.90
2018-05-06T05:34:15.689Z,12.90
2018-05-06T05:37:17.669Z,12.90
2018-05-06T05:40:19.676Z,12.90
2018-05-06T05:43:20.946Z,12.90
2018-05-06T05:46:22.199Z,12.90
2018-05-06T05:49:23.495Z,13.00
2018-05-06T05:52:24.760Z,13.00
2018-05-06T05:55:26.045Z,13.00
2018-05-06T05:58:27.850Z,13.00
2018-05-06T06:01:29.859Z,13.20
2018-05-06T06:04:31.321Z,13.10
2018-05-06T06:07:32.577Z,13.10
2018-05-06T06:10:33.812Z,13.20
2018-05-06T06:13:35.078Z,13.30
2018-05-06T06:16:37.035Z,13.40
2018-05-06T06:19:38.299Z,13.40
2018-05-06T06:22:39.501Z,13.50
2018-05-06T06:25:41.517Z,13.50
2018-05-06T06:28:42.762Z,13.50
2018-05-06T06:31:44.036Z,13.60
2018-05-06T06:34:45.297Z,13.60
2018-05-06T06:37:46.539Z,13.70
2018-05-06T06:40:47.775Z,13.80
2018-05-06T06:43:49.071Z,13.80
2018-05-06T06:46:50.341Z,13.80
2018-05-06T06:49:51.607Z,13.90
2018-05-06T06:52:52.868Z,13.90
2018-05-06T06:55:54.193Z,14.00
2018-05-06T06:58:55.431Z,14.00
2018-05-06T07:01:57.544Z,14.20
2018-05-06T07:04:59.549Z,14.30
2018-05-06T07:08:00.788Z,14.30
2018-05-06T07:11:02.041Z,14.50
2018-05-06T07:14:03.327Z,14.60
2018-05-06T07:17:05.313Z,14.80
2018-05-06T07:20:07.314Z,15.00
2018-05-06T07:23:08.540Z,14.90
2018-05-06T07:26:10.569Z,15.30
2018-05-06T07:29:11.811Z,15.30
2018-05-06T07:32:13.063Z,15.60
2018-05-06T07:35:14.310Z,15.80
2018-05-06T07:38:16.357Z,16.00
2018-05-06T07:41:17.631Z,16.00
2018-05-06T07:44:18.898Z,16.10
2018-05-06T07:47:20.168Z,16.30
2018-05-06T07:50:21.408Z,16.40
2018-05-06T07:53:22.647Z,16.50
2018-05-06T07:56:23.911Z,16.60
2018-05-06T07:59:25.166Z,16.80
2018-05-06T08:02:26.422Z,16.80
2018-05-06T08:05:27.685Z,16.90
2018-05-06T08:08:28.946Z,16.90
2018-05-06T08:11:30.197Z,17.10
2018-05-06T08:14:32.186Z,17.20
2018-05-06T08:17:33.433Z,17.10
2018-05-06T08:20:35.476Z,17.40
2018-05-06T08:23:36.742Z,17.30
2018-05-06T08:26:37.992Z,17.50
2018-05-06T08:29:39.243Z,17.60
2018-05-06T08:32:40.536Z,17.60
2018-05-06T08:35:41.801Z,17.70
2018-05-06T08:38:43.060Z,17.90
2018-05-06T08:41:45.047Z,18.10
2018-05-06T08:44:46.314Z,18.10
2018-05-06T08:47:47.566Z,18.20
2018-05-06T08:50:48.860Z,18.10
2018-05-06T08:53:50.901Z,18.30
2018-05-06T08:56:52.272Z,18.30
2018-05-06T08:59:53.516Z,18.40
2018-05-06T09:02:54.831Z,18.40
2018-05-06T09:05:56.207Z,18.50
2018-05-06T09:08:58.251Z,18.70
2018-05-06T09:11:59.493Z,18.70
2018-05-06T09:15:02.303Z,18.80
2018-05-06T09:18:03.614Z,18.90
2018-05-06T09:21:05.626Z,19.20
2018-05-06T09:24:06.895Z,19.20
2018-05-06T09:27:09.459Z,19.40
2018-05-06T09:30:11.418Z,19.70
2018-05-06T09:33:12.691Z,19.60
2018-05-06T09:36:14.656Z,19.90
2018-05-06T09:39:15.931Z,19.90
2018-05-06T09:42:19.193Z,20.00
2018-05-06T09:45:20.572Z,19.80
2018-05-06T09:48:21.886Z,20.10
2018-05-06T09:51:23.958Z,20.20
2018-05-06T09:54:26.105Z,20.30
2018-05-06T09:57:27.448Z,20.00
2018-05-06T10:00:28.799Z,20.50
2018-05-06T10:03:30.405Z,20.30
2018-05-06T10:06:31.698Z,20.50
2018-05-06T10:09:33.750Z,20.60
2018-05-06T10:12:34.992Z,20.50
2018-05-06T10:15:36.285Z,20.70
2018-05-06T10:18:37.593Z,20.70
2018-05-06T10:21:39.649Z,20.90
2018-05-06T10:24:40.904Z,20.80
2018-05-06T10:27:42.176Z,20.90
2018-05-06T10:30:43.445Z,21.00
2018-05-06T10:33:44.800Z,21.00
2018-05-06T10:36:46.072Z,21.20
2018-05-06T10:39:47.360Z,21.20
2018-05-06T10:42:48.620Z,21.30
2018-05-06T10:45:50.756Z,21.50
2018-05-06T10:48:52.317Z,21.50
2018-05-06T10:51:53.730Z,21.50
2018-05-06T10:54:55.924Z,21.90
2018-05-06T10:57:58.000Z,22.00
2018-05-06T11:01:00.123Z,22.10
2018-05-06T11:04:01.487Z,22.00
2018-05-06T11:07:02.830Z,22.30
2018-05-06T11:10:04.268Z,22.20
2018-05-06T11:16:15.199Z,22.20
2018-05-06T11:19:17.273Z,22.30
2018-05-06T11:22:18.595Z,22.30
2018-05-06T11:25:19.917Z,22.40
2018-05-06T11:28:22.029Z,22.60
2018-05-06T11:31:23.639Z,22.60
2018-05-06T11:34:25.015Z,22.60
2018-05-06T11:37:26.371Z,22.70
2018-05-06T11:40:27.719Z,22.80
2018-05-06T11:43:29.018Z,22.80
2018-05-06T11:46:30.427Z,23.00
2018-05-06T11:49:31.878Z,23.20
2018-05-06T11:52:33.211Z,23.20
2018-05-06T11:55:34.537Z,23.40
2018-05-06T11:58:35.891Z,23.50
2018-05-06T12:01:37.261Z,23.40
2018-05-06T12:04:38.634Z,23.60
2018-05-06T12:07:40.150Z,23.70
2018-05-06T12:10:41.483Z,23.80
2018-05-06T12:13:43.621Z,23.80
2018-05-06T12:16:45.713Z,23.80
2018-05-06T12:19:47.441Z,23.80
2018-05-06T12:22:49.334Z,23.90
2018-05-06T12:25:51.476Z,24.20
2018-05-06T12:28:53.588Z,24.20
2018-05-06T12:31:54.922Z,24.20
2018-05-06T12:34:56.327Z,24.30
2018-05-06T12:37:58.040Z,24.40
2018-05-06T12:40:59.995Z,24.40
2018-05-06T12:44:01.478Z,24.50
2018-05-06T12:47:03.564Z,24.50
2018-05-06T12:50:05.646Z,24.70
2018-05-06T12:53:07.723Z,24.90
2018-05-06T12:56:09.823Z,24.90
2018-05-06T12:59:11.171Z,25.10
2018-05-06T13:02:12.520Z,25.00
2018-05-06T13:05:14.595Z,25.10
2018-05-06T13:08:15.977Z,25.10
2018-05-06T13:11:18.084Z,25.20
2018-05-06T13:14:19.412Z,25.10
2018-05-06T13:17:21.534Z,25.30
2018-05-06T13:20:22.932Z,25.30
2018-05-06T13:23:25.010Z,25.20
2018-05-06T13:26:26.343Z,25.00
2018-05-06T13:29:27.704Z,24.90
2018-05-06T13:32:29.114Z,25.00
2018-05-06T13:35:30.485Z,25.10
2018-05-06T13:38:31.926Z,25.00
2018-05-06T13:41:33.309Z,24.90
2018-05-06T13:44:34.639Z,24.80
2018-05-06T13:47:36.008Z,24.70
2018-05-06T13:50:37.362Z,24.70
2018-05-06T13:53:38.738Z,24.60
2018-05-06T13:56:40.102Z,24.60
2018-05-06T13:59:41.524Z,24.80
2018-05-06T14:02:43.034Z,24.70
2018-05-06T14:05:44.416Z,24.70
2018-05-06T14:08:45.790Z,24.80
2018-05-06T14:11:47.170Z,24.80
2018-05-06T14:14:48.668Z,24.90
2018-05-06T14:17:50.091Z,25.00
2018-05-06T14:20:51.452Z,24.90
2018-05-06T14:23:52.847Z,24.90
2018-05-06T14:26:54.990Z,24.80
2018-05-06T14:29:56.414Z,24.80
2018-05-06T14:32:57.724Z,24.80
2018-05-06T14:35:59.072Z,24.80
2018-05-06T14:39:01.189Z,24.80
2018-05-06T14:42:02.615Z,24.80
2018-05-06T14:45:04.035Z,24.80
2018-05-06T14:48:14.482Z,24.90
2018-05-06T14:51:15.832Z,25.00
2018-05-06T14:54:17.954Z,24.80
2018-05-06T14:57:19.307Z,24.60
2018-05-06T15:00:20.645Z,24.70
2018-05-06T15:03:22.719Z,24.60
2018-05-06T15:06:24.850Z,24.50
2018-05-06T15:09:26.231Z,24.50
2018-05-06T15:12:28.297Z,24.50
2018-05-06T15:15:29.844Z,24.50
2018-05-06T15:18:31.278Z,24.50
2018-05-06T15:21:32.607Z,24.50
2018-05-06T15:24:33.956Z,24.40
2018-05-06T15:27:35.295Z,24.40
2018-05-06T15:30:37.399Z,24.40
2018-05-06T15:33:38.807Z,24.30
2018-05-06T15:36:40.144Z,24.30
2018-05-06T15:39:41.455Z,24.30
2018-05-06T15:42:43.595Z,24.00
2018-05-06T15:45:45.005Z,23.90
2018-05-06T15:48:47.249Z,23.80
2018-05-06T15:51:48.620Z,23.60
2018-05-06T15:54:50.016Z,23.60
2018-05-06T15:57:51.389Z,23.50
2018-05-06T16:00:53.624Z,23.30
2018-05-06T16:04:11.385Z,23.30
2018-05-06T16:07:12.964Z,23.20
2018-05-06T16:10:14.273Z,23.20
2018-05-06T16:13:16.372Z,23.30
2018-05-06T16:16:17.687Z,23.30
2018-05-06T16:19:19.053Z,23.20
2018-05-06T16:22:20.413Z,23.10
2018-05-06T16:25:21.718Z,23.20
2018-05-06T16:28:24.015Z,23.10
2018-05-06T16:31:25.334Z,23.00
2018-05-06T16:34:26.975Z,23.00
2018-05-06T16:37:28.303Z,22.70
2018-05-06T16:40:30.702Z,22.90
2018-05-06T16:43:32.818Z,22.70
2018-05-06T16:46:34.059Z,22.80
2018-05-06T16:49:35.350Z,22.80
2018-05-06T16:52:36.618Z,22.80
2018-05-06T16:55:38.629Z,22.80
2018-05-06T16:58:39.883Z,22.80
2018-05-06T17:01:41.155Z,22.80
2018-05-06T17:04:42.449Z,22.70
2018-05-06T17:07:44.485Z,22.80
2018-05-06T17:10:45.776Z,22.80
2018-05-06T17:13:47.140Z,22.80
2018-05-06T17:16:48.432Z,22.70
2018-05-06T17:19:53.103Z,22.70
2018-05-06T17:22:54.563Z,22.60
2018-05-06T17:25:55.974Z,22.50
2018-05-06T17:28:58.073Z,22.50
2018-05-06T17:32:00.246Z,22.40
2018-05-06T17:35:01.608Z,22.20
2018-05-06T17:38:03.027Z,22.30
2018-05-06T17:41:04.323Z,22.30
2018-05-06T17:44:05.655Z,22.20
2018-05-06T17:47:06.998Z,22.30
2018-05-06T17:50:08.416Z,22.20
2018-05-06T17:53:09.719Z,22.20
2018-05-06T17:56:11.758Z,22.10
2018-05-06T17:59:13.045Z,22.00
2018-05-06T18:02:14.311Z,22.10
2018-05-06T18:05:15.588Z,22.00
2018-05-06T18:08:17.615Z,22.00
2018-05-06T18:11:18.846Z,22.00
2018-05-06T18:14:21.321Z,21.80
2018-05-06T18:17:23.382Z,21.70
2018-05-06T18:20:24.899Z,21.70
2018-05-06T18:23:26.589Z,21.80
2018-05-06T18:26:27.971Z,21.60
2018-05-06T18:29:29.308Z,21.60
2018-05-06T18:32:30.662Z,21.70
2018-05-06T18:35:32.056Z,21.50
2018-05-06T18:38:33.631Z,21.50
2018-05-06T18:41:34.931Z,21.60
2018-05-06T18:44:36.266Z,21.60
2018-05-06T18:47:37.975Z,21.60
2018-05-06T18:50:39.429Z,21.50
2018-05-06T18:53:42.161Z,21.30
2018-05-06T18:56:45.483Z,21.20
2018-05-06T18:59:46.832Z,21.20
2018-05-06T19:02:48.930Z,20.90
2018-05-06T19:05:50.232Z,20.80
2018-05-06T19:08:51.626Z,20.90
2018-05-06T19:11:54.961Z,20.80
2018-05-06T19:14:57.440Z,20.60
2018-05-06T19:17:58.882Z,20.60
2018-05-06T19:21:00.350Z,20.40
2018-05-06T19:24:02.704Z,20.30
2018-05-06T19:27:05.363Z,20.20
2018-05-06T19:30:08.523Z,20.30
2018-05-06T19:33:10.406Z,20.40
2018-05-06T19:36:12.679Z,20.30
2018-05-06T19:39:14.176Z,20.30
2018-05-06T19:42:15.627Z,20.30
2018-05-06T19:45:17.579Z,20.20
2018-05-06T19:48:19.393Z,20.20
2018-05-06T19:51:22.235Z,20.20
2018-05-06T19:54:23.713Z,19.90
2018-05-06T19:57:26.235Z,20.10
2018-05-06T20:00:27.652Z,20.00
2018-05-06T20:03:29.750Z,20.00
2018-05-06T20:06:31.815Z,19.90
2018-05-06T20:09:33.082Z,19.90
2018-05-06T20:12:34.314Z,19.80
2018-05-06T20:15:35.875Z,19.90
2018-05-06T20:18:37.153Z,19.90
2018-05-06T20:21:38.714Z,19.70
2018-05-06T20:24:39.981Z,19.80
2018-05-06T20:27:43.249Z,19.90
2018-05-06T20:30:44.562Z,19.70
2018-05-06T20:33:46.004Z,19.60
2018-05-06T20:36:51.263Z,19.80
2018-05-06T20:39:52.864Z,20.00
2018-05-06T20:43:02.241Z,19.80
2018-05-06T20:46:04.333Z,19.50
2018-05-06T20:49:06.313Z,19.70
2018-05-06T20:52:08.321Z,19.70
2018-05-06T20:55:09.647Z,19.70
2018-05-06T20:58:10.999Z,19.60
2018-05-06T21:01:12.371Z,19.60
2018-05-06T21:04:13.725Z,19.60
2018-05-06T21:07:14.980Z,19.40
2018-05-06T21:10:16.238Z,19.30
2018-05-06T21:13:17.606Z,19.00
2018-05-06T21:16:18.991Z,18.90
2018-05-06T21:19:20.977Z,18.80
2018-05-06T21:22:23.065Z,18.70
2018-05-06T21:25:24.428Z,18.90
2018-05-06T21:28:25.805Z,18.90
2018-05-06T21:31:27.002Z,18.80
2018-05-06T21:34:28.258Z,18.70
2018-05-06T21:37:29.514Z,18.70
2018-05-06T21:40:30.828Z,18.70
2018-05-06T21:43:32.751Z,18.30
2018-05-06T21:46:34.464Z,18.20
2018-05-06T21:49:35.737Z,18.20
2018-05-06T21:52:36.994Z,18.20
2018-05-06T21:55:38.274Z,18.20
2018-05-06T21:58:39.657Z,18.50
2018-05-06T22:01:41.636Z,18.10
2018-05-06T22:04:42.885Z,18.10
2018-05-06T22:07:44.157Z,18.20
2018-05-06T22:10:45.423Z,18.40
2018-05-06T22:13:46.678Z,18.30
2018-05-06T22:16:47.915Z,18.20
2018-05-06T22:19:49.158Z,18.30
2018-05-06T22:22:50.454Z,18.20
2018-05-06T22:25:51.740Z,18.00
2018-05-06T22:28:53.746Z,18.10
2018-05-06T22:31:55.106Z,18.00
2018-05-06T22:34:56.302Z,17.90
2018-05-06T22:37:57.535Z,18.00
2018-05-06T22:40:58.824Z,18.10
2018-05-06T22:44:00.094Z,18.00
2018-05-06T22:47:01.346Z,17.90
2018-05-06T22:50:02.702Z,17.90
2018-05-06T22:53:03.966Z,17.90
2018-05-06T22:56:05.216Z,18.00
2018-05-06T22:59:13.432Z,18.00
2018-05-06T23:02:15.525Z,17.40
2018-05-06T23:05:17.497Z,17.60
2018-05-06T23:08:19.530Z,17.20
2018-05-06T23:11:20.820Z,17.20
2018-05-06T23:14:22.078Z,17.00
2018-05-06T23:17:23.306Z,16.90
2018-05-06T23:20:24.530Z,17.20
2018-05-06T23:23:27.357Z,16.90
2018-05-06T23:26:28.641Z,16.90
2018-05-06T23:29:30.603Z,17.00
2018-05-06T23:32:31.849Z,17.00
2018-05-06T23:35:33.179Z,17.10
2018-05-06T23:38:34.454Z,17.20
2018-05-06T23:41:35.756Z,17.20
2018-05-06T23:44:37.041Z,16.90
2018-05-06T23:47:38.359Z,17.10
2018-05-06T23:50:40.356Z,16.60
2018-05-06T23:53:41.615Z,16.50
2018-05-06T23:56:42.897Z,16.60
2018-05-06T23:59:44.186Z,16.60
